createdAt,value
2018-09-19T00:02:31.181Z,31.95
2018-09-19T00:05:07.787Z,32.95
2018-09-19T00:07:49.446Z,32.93
2018-09-19T00:10:22.911Z,32.23
2018-09-19T00:12:56.290Z,32.23
2018-09-19T00:15:29.679Z,32.70
2018-09-19T00:18:03.071Z,33.00
2018-09-19T00:20:36.460Z,33.33
2018-09-19T00:23:10.298Z,31.90
2018-09-19T00:25:43.819Z,31.90
2018-09-19T00:28:17.184Z,31.70
2018-09-19T00:30:50.591Z,32.30
2018-09-19T00:33:29.711Z,32.13
2018-09-19T00:36:03.544Z,31.95
2018-09-19T00:38:37.082Z,31.97
2018-09-19T00:41:10.467Z,32.30
2018-09-19T00:43:43.821Z,32.08
2018-09-19T00:46:17.191Z,31.95
2018-09-19T00:48:50.606Z,32.88
2018-09-19T00:51:25.098Z,31.27
2018-09-19T00:53:58.461Z,31.45
2018-09-19T00:56:31.858Z,31.93
2018-09-19T00:59:05.249Z,31.65
2018-09-19T01:01:38.627Z,31.17
2018-09-19T01:04:13.014Z,31.40
2018-09-19T01:06:46.384Z,31.77
2018-09-19T01:09:19.740Z,31.40
2018-09-19T01:11:53.106Z,31.73
2018-09-19T01:14:26.459Z,31.85
2018-09-19T01:16:59.834Z,31.45
2018-09-19T01:19:33.199Z,32.20
2018-09-19T01:22:06.670Z,31.65
2018-09-19T01:24:40.019Z,30.80
2018-09-19T01:27:13.391Z,31.57
2018-09-19T01:29:46.842Z,31.25
2018-09-19T01:32:20.208Z,32.03
2018-09-19T01:34:53.555Z,31.45
2018-09-19T01:37:27.090Z,31.97
2018-09-19T01:40:00.459Z,31.70
2018-09-19T01:42:33.842Z,31.50
2018-09-19T01:45:07.208Z,32.42
2018-09-19T01:47:40.580Z,31.75
2018-09-19T01:50:13.935Z,31.80
2018-09-19T01:52:47.299Z,31.52
2018-09-19T01:55:20.661Z,30.88
2018-09-19T01:57:54.026Z,32.17
2018-09-19T02:00:27.380Z,31.48
2018-09-19T02:03:00.762Z,31.80
2018-09-19T02:05:34.128Z,30.72
2018-09-19T02:08:07.556Z,31.48
2018-09-19T02:10:40.923Z,31.30
2018-09-19T02:13:14.298Z,31.57
2018-09-19T02:15:47.661Z,32.73
2018-09-19T02:18:21.032Z,32.38
2018-09-19T02:20:55.430Z,31.65
2018-09-19T02:23:28.794Z,31.75
2018-09-19T02:26:02.150Z,31.68
2018-09-19T02:28:35.604Z,31.90
2018-09-19T02:31:08.936Z,32.33
2018-09-19T02:33:42.332Z,30.82
2018-09-19T02:36:21.990Z,30.95
2018-09-19T02:38:57.394Z,31.12
2018-09-19T02:41:30.755Z,31.33
2018-09-19T02:44:04.138Z,31.57
2018-09-19T02:46:37.511Z,31.95
2018-09-19T02:49:10.898Z,31.40
2018-09-19T02:51:44.248Z,31.42
2018-09-19T02:54:17.703Z,31.95
2018-09-19T02:56:51.060Z,31.48
2018-09-19T02:59:24.426Z,31.68
2018-09-19T03:01:57.773Z,32.13
2018-09-19T03:04:31.242Z,31.40
2018-09-19T03:07:04.593Z,31.50
2018-09-19T03:09:37.966Z,31.80
2018-09-19T03:12:11.728Z,32.60
2018-09-19T03:14:45.097Z,32.05
2018-09-19T03:17:18.555Z,32.50
2018-09-19T03:19:51.861Z,32.73
2018-09-19T03:22:25.218Z,32.42
2018-09-19T03:24:58.629Z,32.55
2018-09-19T03:27:32.051Z,32.33
2018-09-19T03:30:05.783Z,32.05
2018-09-19T03:32:39.156Z,32.73
2018-09-19T03:35:12.570Z,33.08
2018-09-19T03:37:45.918Z,32.20
2018-09-19T03:40:19.327Z,32.45
2018-09-19T03:42:52.776Z,32.60
2018-09-19T03:45:26.203Z,33.73
2018-09-19T03:47:59.603Z,32.63
2018-09-19T03:50:33.016Z,32.30
2018-09-19T03:53:06.465Z,32.38
2018-09-19T03:55:39.947Z,32.50
2018-09-19T03:58:13.370Z,33.05
2018-09-19T04:00:46.786Z,32.23
2018-09-19T04:03:20.214Z,32.40
2018-09-19T04:05:53.675Z,32.88
2018-09-19T04:08:27.094Z,32.33
2018-09-19T04:11:00.542Z,31.62
2018-09-19T04:13:33.972Z,32.10
2018-09-19T04:16:07.409Z,31.33
2018-09-19T04:18:40.824Z,31.60
2018-09-19T04:21:14.276Z,31.40
2018-09-19T04:23:47.677Z,32.03
2018-09-19T04:26:21.095Z,33.90
2018-09-19T04:28:54.506Z,32.45
2018-09-19T04:31:27.940Z,32.30
2018-09-19T04:34:01.354Z,31.73
2018-09-19T04:36:34.781Z,31.68
2018-09-19T04:39:09.772Z,31.48
2018-09-19T04:41:43.195Z,32.30
2018-09-19T04:44:16.602Z,32.00
2018-09-19T04:46:50.067Z,32.53
2018-09-19T04:49:23.488Z,32.48
2018-09-19T04:51:56.913Z,32.33
2018-09-19T04:54:30.342Z,32.67
2018-09-19T04:57:03.778Z,31.30
2018-09-19T04:59:37.187Z,32.30
2018-09-19T05:02:10.590Z,31.27
2018-09-19T05:04:43.988Z,32.88
2018-09-19T05:07:17.444Z,32.25
2018-09-19T05:09:50.832Z,32.60
2018-09-19T05:12:24.279Z,31.90
2018-09-19T05:14:57.685Z,31.65
2018-09-19T05:17:31.104Z,31.70
2018-09-19T05:20:04.568Z,32.13
2018-09-19T05:22:37.990Z,32.30
2018-09-19T05:25:11.391Z,32.13
2018-09-19T05:27:44.806Z,32.53
2018-09-19T05:30:18.213Z,31.97
2018-09-19T05:32:51.628Z,32.67
2018-09-19T05:35:25.039Z,32.15
2018-09-19T05:37:58.454Z,31.95
2018-09-19T05:40:31.874Z,31.90
2018-09-19T05:43:05.299Z,32.25
2018-09-19T05:45:38.783Z,32.00
2018-09-19T05:48:12.243Z,32.30
2018-09-19T05:50:45.640Z,31.77
2018-09-19T05:53:19.058Z,32.10
2018-09-19T05:55:52.496Z,31.70
2018-09-19T05:58:26.107Z,31.55
2018-09-19T06:00:59.569Z,32.78
2018-09-19T06:03:32.996Z,32.60
2018-09-19T06:06:06.451Z,32.42
2018-09-19T06:08:39.863Z,32.73
2018-09-19T06:11:13.259Z,32.42
2018-09-19T06:13:46.703Z,32.63
2018-09-19T06:16:20.112Z,32.00
2018-09-19T06:18:53.528Z,32.95
2018-09-19T06:21:26.960Z,32.28
2018-09-19T06:24:00.399Z,32.90
2018-09-19T06:26:33.847Z,32.78
2018-09-19T06:29:07.440Z,32.85
2018-09-19T06:31:40.847Z,32.15
2018-09-19T06:34:14.291Z,33.02
2018-09-19T06:36:47.692Z,32.65
2018-09-19T06:39:21.164Z,32.63
2018-09-19T06:43:03.344Z,32.93
2018-09-19T06:45:36.801Z,32.38
2018-09-19T06:48:11.279Z,32.65
2018-09-19T06:50:44.689Z,32.28
2018-09-19T06:53:18.113Z,32.25
2018-09-19T06:55:52.609Z,31.93
2018-09-19T06:58:26.040Z,33.50
2018-09-19T07:00:59.450Z,32.93
2018-09-19T07:03:32.862Z,32.48
2018-09-19T07:06:06.461Z,32.75
2018-09-19T07:08:39.888Z,32.53
2018-09-19T07:11:13.417Z,32.53
2018-09-19T07:13:46.880Z,32.67
2018-09-19T07:16:20.398Z,32.40
2018-09-19T07:18:53.847Z,33.38
2018-09-19T07:21:27.226Z,33.95
2018-09-19T07:24:00.655Z,32.48
2018-09-19T07:26:34.051Z,33.18
2018-09-19T07:29:07.496Z,32.75
2018-09-19T07:31:40.963Z,33.02
2018-09-19T07:34:14.379Z,32.88
2018-09-19T07:36:47.799Z,34.30
2018-09-19T07:39:21.241Z,33.65
2018-09-19T07:41:54.746Z,32.75
2018-09-19T07:44:28.164Z,33.65
2018-09-19T07:47:01.559Z,32.93
2018-09-19T07:49:34.986Z,33.55
2018-09-19T07:52:08.453Z,33.02
2018-09-19T07:54:41.887Z,34.45
2018-09-19T07:57:15.295Z,33.70
2018-09-19T07:59:48.719Z,33.40
2018-09-19T08:02:22.225Z,34.55
2018-09-19T08:04:55.938Z,34.10
2018-09-19T08:07:29.335Z,33.88
2018-09-19T08:10:02.764Z,34.48
2018-09-19T08:12:36.175Z,34.25
2018-09-19T08:15:09.606Z,34.90
2018-09-19T08:17:43.032Z,34.38
2018-09-19T08:20:16.467Z,34.10
2018-09-19T08:22:49.950Z,33.60
2018-09-19T08:25:23.451Z,34.38
2018-09-19T08:27:56.862Z,33.53
2018-09-19T08:30:30.295Z,33.80
2018-09-19T08:33:03.708Z,34.25
2018-09-19T08:35:37.172Z,34.63
2018-09-19T08:38:10.664Z,34.25
2018-09-19T08:40:44.219Z,33.83
2018-09-19T08:43:17.699Z,34.63
2018-09-19T08:45:51.107Z,34.08
2018-09-19T08:48:24.513Z,35.00
2018-09-19T08:50:58.015Z,33.95
2018-09-19T08:53:31.416Z,34.00
2018-09-19T08:56:04.928Z,34.30
2018-09-19T08:58:38.337Z,34.30
2018-09-19T09:01:11.798Z,33.98
2018-09-19T09:03:45.516Z,34.13
2018-09-19T09:06:18.955Z,35.05
2018-09-19T09:08:52.357Z,33.75
2018-09-19T09:11:26.838Z,34.67
2018-09-19T09:14:00.235Z,34.67
2018-09-19T09:16:33.654Z,35.23
2018-09-19T09:19:07.071Z,35.13
2018-09-19T09:21:40.506Z,34.23
2018-09-19T09:24:13.903Z,34.55
2018-09-19T09:26:47.497Z,33.98
2018-09-19T09:29:20.876Z,34.58
2018-09-19T09:31:54.311Z,36.23
2018-09-19T09:34:27.711Z,34.88
2018-09-19T09:37:01.142Z,35.33
2018-09-19T09:39:34.559Z,35.10
2018-09-19T09:42:07.993Z,34.78
2018-09-19T09:44:41.406Z,35.05
2018-09-19T09:47:14.838Z,35.23
2018-09-19T09:49:48.253Z,34.88
2018-09-19T09:52:21.695Z,34.60
2018-09-19T09:54:55.087Z,34.20
2018-09-19T09:57:28.499Z,34.80
2018-09-19T10:00:01.974Z,34.65
2018-09-19T10:02:35.446Z,34.67
2018-09-19T10:05:08.861Z,34.90
2018-09-19T10:07:42.282Z,34.78
2018-09-19T10:10:15.756Z,34.80
2018-09-19T10:12:49.187Z,35.38
2018-09-19T10:15:22.593Z,34.73
2018-09-19T10:17:56.006Z,35.15
2018-09-19T10:20:29.405Z,34.78
2018-09-19T10:23:02.867Z,35.20
2018-09-19T10:25:36.561Z,34.67
2018-09-19T10:28:10.059Z,34.43
2018-09-19T10:30:43.451Z,35.17
2018-09-19T10:33:16.961Z,35.28
2018-09-19T10:35:50.478Z,37.55
2018-09-19T10:38:23.896Z,34.75
2018-09-19T10:40:57.323Z,34.55
2018-09-19T10:43:30.839Z,34.95
2018-09-19T10:46:04.259Z,34.25
2018-09-19T10:48:37.706Z,35.25
2018-09-19T10:51:11.139Z,34.55
2018-09-19T10:53:44.571Z,35.00
2018-09-19T10:56:17.978Z,34.90
2018-09-19T10:58:51.408Z,34.55
2018-09-19T11:01:24.823Z,35.45
2018-09-19T11:03:58.251Z,34.43
2018-09-19T11:06:31.678Z,35.13
2018-09-19T11:09:07.539Z,35.00
2018-09-19T11:11:40.955Z,34.78
2018-09-19T11:14:14.446Z,34.60
2018-09-19T11:16:47.891Z,35.78
2018-09-19T11:19:21.335Z,34.60
2018-09-19T11:21:54.722Z,35.15
2018-09-19T11:24:28.174Z,34.60
2018-09-19T11:27:01.566Z,34.58
2018-09-19T11:29:34.975Z,35.15
2018-09-19T11:32:08.394Z,35.83
2018-09-19T11:34:41.869Z,35.25
2018-09-19T11:37:15.265Z,35.55
2018-09-19T11:39:48.705Z,35.90
2018-09-19T11:42:23.150Z,35.52
2018-09-19T11:44:56.676Z,35.45
2018-09-19T11:47:30.067Z,35.50
2018-09-19T11:50:03.576Z,34.80
2018-09-19T11:52:36.987Z,35.25
2018-09-19T11:55:10.411Z,35.68
2018-09-19T11:57:43.835Z,35.40
2018-09-19T12:00:17.375Z,35.58
2018-09-19T12:02:50.836Z,34.85
2018-09-19T12:05:24.403Z,35.75
2018-09-19T12:07:59.683Z,35.95
2018-09-19T12:10:33.147Z,34.88
2018-09-19T12:13:06.651Z,35.08
2018-09-19T12:15:40.115Z,35.70
2018-09-19T12:18:13.519Z,35.43
2018-09-19T12:20:46.956Z,35.20
2018-09-19T12:23:20.362Z,35.48
2018-09-19T12:25:53.815Z,35.33
2018-09-19T12:28:27.259Z,34.60
2018-09-19T12:31:02.430Z,36.75
2018-09-19T12:33:35.826Z,35.23
2018-09-19T12:36:09.306Z,35.00
2018-09-19T12:38:42.751Z,35.23
2018-09-19T12:41:16.191Z,35.05
2018-09-19T12:43:51.890Z,35.98
2018-09-19T12:46:25.331Z,36.65
2018-09-19T12:48:58.758Z,34.95
2018-09-19T12:51:32.213Z,34.85
2018-09-19T12:54:05.628Z,35.85
2018-09-19T12:56:39.080Z,35.65
2018-09-19T12:59:12.523Z,35.65
2018-09-19T13:01:48.718Z,35.43
2018-09-19T13:04:22.314Z,35.50
2018-09-19T13:06:55.742Z,35.38
2018-09-19T13:09:29.172Z,35.30
2018-09-19T13:12:02.638Z,35.68
2018-09-19T13:14:37.107Z,35.80
2018-09-19T13:17:11.280Z,34.78
2018-09-19T13:19:44.718Z,35.55
2018-09-19T13:22:18.152Z,35.50
2018-09-19T13:24:51.561Z,35.05
2018-09-19T13:27:25.065Z,35.43
2018-09-19T13:29:58.511Z,35.23
2018-09-19T13:32:31.919Z,34.63
2018-09-19T13:35:05.344Z,34.98
2018-09-19T13:37:38.768Z,35.38
2018-09-19T13:40:12.336Z,35.13
2018-09-19T13:42:45.743Z,35.43
2018-09-19T13:45:19.179Z,34.78
2018-09-19T13:47:52.577Z,35.08
2018-09-19T13:51:28.591Z,35.35
2018-09-19T13:54:01.994Z,35.68
2018-09-19T13:56:35.419Z,34.98
2018-09-19T13:59:08.879Z,35.85
2018-09-19T14:01:42.295Z,35.48
2018-09-19T14:04:15.714Z,35.15
2018-09-19T14:06:49.143Z,35.90
2018-09-19T14:09:22.635Z,35.05
2018-09-19T14:11:56.071Z,35.80
2018-09-19T14:14:29.480Z,35.28
2018-09-19T14:17:02.938Z,35.75
2018-09-19T14:19:36.369Z,35.35
2018-09-19T14:22:09.885Z,35.05
2018-09-19T14:24:43.284Z,34.80
2018-09-19T14:27:16.724Z,35.58
2018-09-19T14:29:50.515Z,35.30
2018-09-19T14:32:24.055Z,34.23
2018-09-19T14:34:57.508Z,36.13
2018-09-19T14:37:30.918Z,35.23
2018-09-19T14:40:04.494Z,34.15
2018-09-19T14:42:37.936Z,35.78
2018-09-19T14:45:11.351Z,34.85
2018-09-19T14:47:44.799Z,34.83
2018-09-19T14:50:18.214Z,34.95
2018-09-19T14:52:57.652Z,35.28
2018-09-19T14:55:31.068Z,34.75
2018-09-19T14:58:04.601Z,35.28
2018-09-19T15:00:38.136Z,34.78
2018-09-19T15:03:11.564Z,35.43
2018-09-19T15:05:44.956Z,35.10
2018-09-19T15:08:18.459Z,34.90
2018-09-19T15:10:51.936Z,35.50
2018-09-19T15:13:25.463Z,34.63
2018-09-19T15:15:58.863Z,36.38
2018-09-19T15:18:32.287Z,35.45
2018-09-19T15:21:05.879Z,35.60
2018-09-19T15:23:39.303Z,35.38
2018-09-19T15:26:13.533Z,35.88
2018-09-19T15:28:46.952Z,35.30
2018-09-19T15:31:20.388Z,35.13
2018-09-19T15:33:53.802Z,35.40
2018-09-19T15:36:27.215Z,35.05
2018-09-19T15:39:00.660Z,34.85
2018-09-19T15:41:34.072Z,35.75
2018-09-19T15:44:07.502Z,35.33
2018-09-19T15:46:40.927Z,35.55
2018-09-19T15:49:14.319Z,35.68
2018-09-19T15:51:47.751Z,35.00
2018-09-19T15:54:21.147Z,35.10
2018-09-19T15:56:54.566Z,34.65
2018-09-19T15:59:27.975Z,34.65
2018-09-19T16:02:01.426Z,35.13
2018-09-19T16:04:34.904Z,35.13
2018-09-19T16:07:08.392Z,35.20
2018-09-19T16:09:41.807Z,35.52
2018-09-19T16:12:15.240Z,35.45
2018-09-19T16:14:49.723Z,35.43
2018-09-19T16:17:23.155Z,34.92
2018-09-19T16:19:56.559Z,35.33
2018-09-19T16:22:29.978Z,35.10
2018-09-19T16:25:03.451Z,35.17
2018-09-19T16:27:36.875Z,34.75
2018-09-19T16:30:10.301Z,35.73
2018-09-19T16:32:43.737Z,34.50
2018-09-19T16:35:17.155Z,35.15
2018-09-19T16:37:50.588Z,35.25
2018-09-19T16:40:24.012Z,35.95
2018-09-19T16:42:57.423Z,36.70
2018-09-19T16:45:30.915Z,35.70
2018-09-19T16:48:04.391Z,35.58
2018-09-19T16:50:37.792Z,35.23
2018-09-19T16:53:11.227Z,35.68
2018-09-19T16:55:44.636Z,35.33
2018-09-19T16:58:18.054Z,35.17
2018-09-19T17:00:51.487Z,35.78
2018-09-19T17:03:24.915Z,34.95
2018-09-19T17:05:58.323Z,35.45
2018-09-19T17:08:31.800Z,35.30
2018-09-19T17:11:05.323Z,35.20
2018-09-19T17:13:38.753Z,35.55
2018-09-19T17:16:12.180Z,35.10
2018-09-19T17:18:45.712Z,35.95
2018-09-19T17:21:19.108Z,35.28
2018-09-19T17:23:52.527Z,35.38
2018-09-19T17:26:25.947Z,35.78
2018-09-19T17:28:59.509Z,35.25
2018-09-19T17:31:32.932Z,34.73
2018-09-19T17:34:06.360Z,34.55
2018-09-19T17:36:43.652Z,35.30
2018-09-19T17:39:17.157Z,35.00
2018-09-19T17:41:50.575Z,35.52
2018-09-19T17:44:24.070Z,35.55
2018-09-19T17:46:57.562Z,34.98
2018-09-19T17:49:31.062Z,34.70
2018-09-19T17:52:04.507Z,35.23
2018-09-19T17:54:37.931Z,34.83
2018-09-19T17:57:11.461Z,34.50
2018-09-19T17:59:44.900Z,35.33
2018-09-19T18:02:18.370Z,34.63
2018-09-19T18:04:51.812Z,34.70
2018-09-19T18:07:25.310Z,34.58
2018-09-19T18:09:58.736Z,35.13
2018-09-19T18:12:32.170Z,34.88
2018-09-19T18:15:05.812Z,35.33
2018-09-19T18:17:39.339Z,35.25
2018-09-19T18:20:12.767Z,35.52
2018-09-19T18:22:46.214Z,34.95
2018-09-19T18:25:19.638Z,34.73
2018-09-19T18:27:53.032Z,34.08
2018-09-19T18:30:26.548Z,34.45
2018-09-19T18:32:59.958Z,34.70
2018-09-19T18:35:33.581Z,34.15
2018-09-19T18:38:07.206Z,34.75
2018-09-19T18:40:40.643Z,34.88
2018-09-19T18:43:14.130Z,34.95
2018-09-19T18:45:47.567Z,34.85
2018-09-19T18:48:21.011Z,34.92
2018-09-19T18:50:54.518Z,35.15
2018-09-19T18:53:28.750Z,35.98
2018-09-19T18:56:02.239Z,37.08
2018-09-19T18:58:35.660Z,38.15
2018-09-19T19:01:09.827Z,34.95
2018-09-19T19:03:43.292Z,34.73
2018-09-19T19:06:16.735Z,34.45
2018-09-19T19:08:50.219Z,35.55
2018-09-19T19:11:23.773Z,34.65
2018-09-19T19:13:57.190Z,34.48
2018-09-19T19:16:30.626Z,34.13
2018-09-19T19:19:04.072Z,34.33
2018-09-19T19:21:37.513Z,34.10
2018-09-19T19:24:10.922Z,34.80
2018-09-19T19:26:44.339Z,34.63
2018-09-19T19:29:17.736Z,34.53
2018-09-19T19:31:51.157Z,35.08
2018-09-19T19:34:24.564Z,35.48
2018-09-19T19:36:58.007Z,35.08
2018-09-19T19:39:31.415Z,34.55
2018-09-19T19:42:04.901Z,35.08
2018-09-19T19:44:38.342Z,34.75
2018-09-19T19:47:11.812Z,35.35
2018-09-19T19:49:45.211Z,34.73
2018-09-19T19:52:18.624Z,35.35
2018-09-19T19:54:52.032Z,34.90
2018-09-19T19:57:25.508Z,35.15
2018-09-19T19:59:58.906Z,34.35
2018-09-19T20:02:33.303Z,34.48
2018-09-19T20:05:06.747Z,35.48
2018-09-19T20:07:40.167Z,34.78
2018-09-19T20:10:13.643Z,35.48
2018-09-19T20:12:47.371Z,35.50
2018-09-19T20:15:20.791Z,35.17
2018-09-19T20:17:54.259Z,35.45
2018-09-19T20:20:27.683Z,34.75
2018-09-19T20:23:01.159Z,35.10
2018-09-19T20:25:34.610Z,35.15
2018-09-19T20:28:08.023Z,34.98
2018-09-19T20:30:41.443Z,37.25
2018-09-19T20:33:16.937Z,34.83
2018-09-19T20:35:50.339Z,34.98
2018-09-19T20:38:23.804Z,35.03
2018-09-19T20:40:57.287Z,35.80
2018-09-19T20:43:30.711Z,34.40
2018-09-19T20:46:04.127Z,34.80
2018-09-19T20:48:37.544Z,34.43
2018-09-19T20:51:10.972Z,34.58
2018-09-19T20:53:44.434Z,34.95
2018-09-19T20:56:17.835Z,35.20
2018-09-19T20:58:51.259Z,36.08
2018-09-19T21:01:24.671Z,34.78
2018-09-19T21:03:59.132Z,34.80
2018-09-19T21:06:32.659Z,35.30
2018-09-19T21:09:06.506Z,34.43
2018-09-19T21:11:39.905Z,34.65
2018-09-19T21:14:13.343Z,34.48
2018-09-19T21:16:46.752Z,34.83
2018-09-19T21:19:20.291Z,35.43
2018-09-19T21:21:53.753Z,34.75
2018-09-19T21:24:27.223Z,34.78
2018-09-19T21:27:00.624Z,34.10
2018-09-19T21:29:34.191Z,34.70
2018-09-19T21:32:07.617Z,34.25
2018-09-19T21:34:41.056Z,34.15
2018-09-19T21:37:14.458Z,34.83
2018-09-19T21:39:47.906Z,34.73
2018-09-19T21:42:21.308Z,34.83
2018-09-19T21:44:54.727Z,34.78
2018-09-19T21:47:28.128Z,35.10
2018-09-19T21:50:01.551Z,34.40
2018-09-19T21:52:34.948Z,34.78
2018-09-19T21:55:08.385Z,35.13
2018-09-19T21:57:41.775Z,34.92
2018-09-19T22:00:15.548Z,34.67
2018-09-19T22:02:48.948Z,33.73
2018-09-19T22:05:22.375Z,35.23
2018-09-19T22:07:55.780Z,34.65
2018-09-19T22:10:29.807Z,33.28
2018-09-19T22:13:03.228Z,34.60
2018-09-19T22:15:36.722Z,34.35
2018-09-19T22:18:10.127Z,34.73
2018-09-19T22:20:43.675Z,34.58
2018-09-19T22:23:17.075Z,35.10
2018-09-19T22:25:50.549Z,35.08
2018-09-19T22:28:23.976Z,34.00
2018-09-19T22:30:57.395Z,34.53
2018-09-19T22:33:30.795Z,34.75
2018-09-19T22:36:04.247Z,35.13
2018-09-19T22:38:37.664Z,35.17
2018-09-19T22:41:11.208Z,35.17
2018-09-19T22:43:44.607Z,34.45
2018-09-19T22:46:18.063Z,35.35
2018-09-19T22:48:51.461Z,34.92
2018-09-19T22:51:24.871Z,34.85
2018-09-19T22:53:58.313Z,35.38
2018-09-19T22:56:31.735Z,34.90
2018-09-19T22:59:05.184Z,34.83
2018-09-19T23:01:38.606Z,35.17
2018-09-19T23:04:12.048Z,34.58
2018-09-19T23:06:45.480Z,35.23
2018-09-19T23:09:18.953Z,35.00
2018-09-19T23:11:52.366Z,34.15
2018-09-19T23:14:25.871Z,34.70
2018-09-19T23:16:59.306Z,34.85
2018-09-19T23:19:32.694Z,34.83
2018-09-19T23:22:06.164Z,34.25
2018-09-19T23:24:39.563Z,34.78
2018-09-19T23:27:12.995Z,34.27
2018-09-19T23:29:46.396Z,34.73
2018-09-19T23:32:19.812Z,35.25
2018-09-19T23:34:53.211Z,34.90
2018-09-19T23:37:26.640Z,34.78
2018-09-19T23:40:00.064Z,34.67
2018-09-19T23:42:33.499Z,34.33
2018-09-19T23:45:07.036Z,33.95
2018-09-19T23:47:40.446Z,34.73
2018-09-19T23:50:13.931Z,34.13
2018-09-19T23:52:47.322Z,33.92
2018-09-19T23:55:20.895Z,34.30
2018-09-19T23:57:54.414Z,33.92
